createdAt,value
2019-01-22T00:01:02.113Z,43.57
2019-01-22T00:03:34.395Z,41.37
2019-01-22T00:06:07.002Z,46.67
2019-01-22T00:08:39.561Z,45.53
2019-01-22T00:11:11.927Z,43.03
2019-01-22T00:13:44.573Z,43.03
2019-01-22T00:16:16.967Z,45.50
2019-01-22T00:18:49.347Z,46.03
2019-01-22T00:21:22.937Z,47.27
2019-01-22T00:23:56.173Z,49.00
2019-01-22T00:26:28.395Z,45.07
2019-01-22T00:29:00.783Z,46.07
2019-01-22T00:31:33.077Z,48.20
2019-01-22T00:34:05.346Z,47.20
2019-01-22T00:36:37.583Z,44.47
2019-01-22T00:39:09.839Z,47.00
2019-01-22T00:41:44.462Z,45.60
2019-01-22T00:44:17.932Z,43.80
2019-01-22T00:46:49.378Z,42.33
2019-01-22T00:49:25.096Z,43.03
2019-01-22T00:51:57.585Z,43.40
2019-01-22T00:54:30.002Z,41.07
2019-01-22T00:57:02.265Z,39.63
2019-01-22T00:59:34.602Z,42.53
2019-01-22T01:02:07.412Z,41.67
2019-01-22T01:04:39.694Z,41.73
2019-01-22T01:07:12.065Z,42.87
2019-01-22T01:09:44.436Z,41.57
2019-01-22T01:12:17.025Z,42.73
2019-01-22T01:14:49.408Z,43.93
2019-01-22T01:17:21.588Z,43.90
2019-01-22T01:19:53.987Z,43.03
2019-01-22T01:22:26.405Z,40.73
2019-01-22T01:24:59.093Z,42.70
2019-01-22T01:27:31.948Z,44.53
2019-01-22T01:30:04.693Z,43.10
2019-01-22T01:32:36.934Z,41.83
2019-01-22T01:35:09.610Z,43.33
2019-01-22T01:37:41.879Z,40.17
2019-01-22T01:40:14.779Z,43.03
2019-01-22T01:42:47.207Z,38.50
2019-01-22T01:45:19.645Z,40.00
2019-01-22T01:47:52.061Z,40.63
2019-01-22T01:50:24.529Z,40.97
2019-01-22T01:52:56.790Z,39.83
2019-01-22T01:55:29.448Z,38.53
2019-01-22T01:58:05.006Z,37.23
2019-01-22T02:00:37.484Z,41.00
2019-01-22T02:03:09.563Z,46.13
2019-01-22T02:05:41.941Z,39.27
2019-01-22T02:08:15.289Z,39.60
2019-01-22T02:10:47.700Z,40.80
2019-01-22T02:13:31.037Z,41.50
2019-01-22T02:16:22.330Z,37.40
2019-01-22T02:18:58.842Z,37.10
2019-01-22T02:21:49.999Z,43.00
2019-01-22T02:24:40.313Z,41.87
2019-01-22T02:27:20.052Z,45.47
2019-01-22T02:30:22.907Z,38.20
2019-01-22T02:33:19.481Z,41.03
2019-01-22T02:36:02.370Z,37.93
2019-01-22T02:39:00.365Z,43.17
2019-01-22T02:42:01.127Z,41.80
2019-01-22T02:45:04.491Z,40.53
2019-01-22T02:47:42.611Z,44.33
2019-01-22T02:50:28.782Z,46.07
2019-01-22T02:53:23.855Z,39.47
2019-01-22T02:56:19.210Z,40.60
2019-01-22T02:59:00.701Z,39.47
2019-01-22T03:01:43.106Z,38.63
2019-01-22T03:04:23.842Z,36.57
2019-01-22T03:07:16.284Z,35.03
2019-01-22T03:10:12.331Z,35.20
2019-01-22T03:13:19.938Z,35.87
2019-01-22T03:16:08.509Z,37.77
2019-01-22T03:18:50.591Z,36.37
2019-01-22T03:21:53.082Z,36.70
2019-01-22T03:24:49.774Z,37.40
2019-01-22T03:27:51.333Z,39.87
2019-01-22T03:30:26.506Z,37.77
2019-01-22T03:33:11.807Z,39.10
2019-01-22T03:35:51.160Z,40.40
2019-01-22T03:38:43.455Z,36.87
2019-01-22T03:41:35.883Z,36.80
2019-01-22T03:44:28.918Z,36.50
2019-01-22T03:47:22.731Z,38.93
2019-01-22T03:50:13.844Z,38.10
2019-01-22T03:53:10.542Z,36.30
2019-01-22T03:55:57.379Z,37.33
2019-01-22T03:58:29.008Z,36.30
2019-01-22T04:01:07.092Z,38.50
2019-01-22T04:03:38.610Z,34.53
2019-01-22T04:06:21.723Z,38.50
2019-01-22T04:08:53.062Z,36.47
2019-01-22T04:11:31.570Z,35.70
2019-01-22T04:14:02.827Z,34.33
2019-01-22T04:16:36.619Z,39.33
2019-01-22T04:19:09.159Z,35.67
2019-01-22T04:21:43.984Z,33.00
2019-01-22T04:24:41.991Z,31.40
2019-01-22T04:27:28.103Z,31.97
2019-01-22T04:30:08.827Z,31.73
2019-01-22T04:32:45.352Z,31.73
2019-01-22T04:35:41.143Z,34.33
2019-01-22T04:38:33.301Z,35.07
2019-01-22T04:41:11.708Z,33.13
2019-01-22T04:43:51.001Z,33.47
2019-01-22T04:46:33.252Z,31.23
2019-01-22T04:49:33.570Z,36.60
2019-01-22T04:52:14.141Z,32.90
2019-01-22T04:55:06.231Z,36.00
2019-01-22T04:57:42.637Z,33.73
2019-01-22T05:00:38.210Z,32.50
2019-01-22T05:03:15.703Z,32.53
2019-01-22T05:06:01.310Z,38.40
2019-01-22T05:09:06.562Z,40.20
2019-01-22T05:12:10.704Z,36.43
2019-01-22T05:14:53.761Z,40.37
2019-01-22T05:17:48.713Z,36.57
2019-01-22T05:20:25.994Z,35.53
2019-01-22T05:23:23.824Z,37.00
2019-01-22T05:26:05.909Z,39.77
2019-01-22T05:28:56.945Z,35.03
2019-01-22T05:31:37.258Z,41.63
2019-01-22T05:34:26.678Z,40.70
2019-01-22T05:37:09.315Z,38.97
2019-01-22T05:39:57.630Z,35.73
2019-01-22T05:42:39.421Z,34.10
2019-01-22T05:45:39.846Z,31.73
2019-01-22T05:48:33.356Z,34.27
2019-01-22T05:51:32.934Z,32.77
2019-01-22T05:54:46.113Z,33.80
2019-01-22T05:57:23.778Z,32.63
2019-01-22T06:00:15.145Z,32.50
2019-01-22T06:02:49.290Z,34.37
2019-01-22T06:05:55.929Z,37.70
2019-01-22T06:08:58.822Z,35.97
2019-01-22T06:11:53.873Z,32.83
2019-01-22T06:14:52.914Z,35.07
2019-01-22T06:17:47.984Z,33.10
2019-01-22T06:20:35.724Z,34.20
2019-01-22T06:23:37.305Z,36.33
2019-01-22T06:26:16.293Z,34.40
2019-01-22T06:29:08.157Z,32.80
2019-01-22T06:32:00.431Z,33.30
2019-01-22T06:34:42.322Z,33.87
2019-01-22T06:37:25.058Z,37.07
2019-01-22T06:40:15.133Z,38.47
2019-01-22T06:43:07.559Z,36.03
2019-01-22T06:45:49.273Z,34.53
2019-01-22T06:48:34.856Z,35.47
2019-01-22T06:51:34.064Z,32.23
2019-01-22T06:54:39.747Z,30.63
2019-01-22T06:57:17.065Z,33.90
2019-01-22T07:00:17.231Z,32.50
2019-01-22T07:03:01.959Z,32.87
2019-01-22T07:05:40.478Z,33.63
2019-01-22T07:08:37.637Z,34.97
2019-01-22T07:11:31.848Z,36.10
2019-01-22T07:14:21.399Z,32.20
2019-01-22T07:17:06.176Z,35.07
2019-01-22T07:19:56.154Z,58.47
2019-01-22T07:22:31.464Z,96.10
2019-01-22T07:25:17.462Z,53.50
2019-01-22T07:28:04.878Z,47.03
2019-01-22T07:30:57.663Z,33.40
2019-01-22T07:33:52.914Z,35.30
2019-01-22T07:36:32.910Z,69.13
2019-01-22T07:39:11.702Z,33.10
2019-01-22T07:41:50.139Z,28.63
2019-01-22T07:44:30.276Z,30.70
2019-01-22T07:47:11.466Z,31.17
2019-01-22T07:50:06.449Z,30.57
2019-01-22T07:52:51.365Z,33.53
2019-01-22T07:55:36.342Z,32.37
2019-01-22T07:58:42.675Z,30.60
2019-01-22T08:01:36.831Z,30.77
2019-01-22T08:04:49.165Z,29.80
2019-01-22T08:07:50.767Z,27.17
2019-01-22T08:10:40.551Z,37.93
2019-01-22T08:13:32.142Z,28.90
2019-01-22T08:16:22.042Z,28.40
2019-01-22T08:19:01.156Z,26.90
2019-01-22T08:21:53.321Z,25.60
2019-01-22T08:24:47.198Z,29.37
2019-01-22T08:27:44.504Z,30.80
2019-01-22T08:30:40.110Z,31.87
2019-01-22T08:33:18.616Z,30.90
2019-01-22T08:36:23.086Z,24.30
2019-01-22T08:39:14.365Z,24.23
2019-01-22T08:41:57.986Z,29.33
2019-01-22T08:44:34.684Z,25.60
2019-01-22T08:47:34.846Z,22.87
2019-01-22T08:50:35.017Z,28.83
2019-01-22T08:53:10.594Z,24.30
2019-01-22T08:56:14.027Z,25.77
2019-01-22T08:59:05.270Z,25.93
2019-01-22T09:02:13.896Z,24.30
2019-01-22T09:04:52.288Z,23.77
2019-01-22T09:07:42.704Z,24.40
2019-01-22T09:10:41.589Z,26.30
2019-01-22T09:13:24.285Z,24.10
2019-01-22T09:16:20.281Z,28.23
2019-01-22T09:19:20.655Z,24.50
2019-01-22T09:22:17.556Z,31.73
2019-01-22T09:24:54.194Z,26.70
2019-01-22T09:28:02.938Z,25.00
2019-01-22T09:30:55.515Z,22.47
2019-01-22T09:34:02.510Z,24.60
2019-01-22T09:37:11.929Z,27.97
2019-01-22T09:39:44.230Z,25.03
2019-01-22T09:42:16.616Z,27.33
2019-01-22T09:44:51.150Z,33.10
2019-01-22T09:47:24.535Z,30.33
2019-01-22T09:49:55.899Z,23.57
2019-01-22T09:52:29.163Z,28.17
2019-01-22T09:55:00.323Z,35.07
2019-01-22T09:57:33.777Z,32.20
2019-01-22T10:00:05.648Z,30.30
2019-01-22T10:02:38.846Z,28.47
2019-01-22T10:05:11.330Z,31.10
2019-01-22T10:07:43.604Z,25.67
2019-01-22T10:10:17.006Z,25.83
2019-01-22T10:12:49.447Z,26.83
2019-01-22T10:15:22.098Z,25.90
2019-01-22T10:17:54.585Z,25.00
2019-01-22T10:20:26.799Z,24.20
2019-01-22T10:22:59.323Z,22.70
2019-01-22T10:25:31.719Z,25.23
2019-01-22T10:28:04.273Z,23.97
2019-01-22T10:30:36.671Z,26.90
2019-01-22T10:33:09.118Z,22.10
2019-01-22T10:35:41.316Z,26.33
2019-01-22T10:38:13.555Z,23.00
2019-01-22T10:40:45.819Z,25.40
2019-01-22T10:43:18.051Z,22.47
2019-01-22T10:45:50.401Z,24.03
2019-01-22T10:48:23.163Z,22.80
2019-01-22T10:50:55.412Z,24.10
2019-01-22T10:53:30.002Z,26.53
2019-01-22T10:56:02.226Z,24.57
2019-01-22T10:58:34.770Z,26.97
2019-01-22T11:01:06.971Z,24.03
2019-01-22T11:03:39.279Z,21.70
2019-01-22T11:06:11.702Z,23.40
2019-01-22T11:08:46.928Z,24.33
2019-01-22T11:11:19.662Z,24.60
2019-01-22T11:13:52.075Z,27.80
2019-01-22T11:16:25.491Z,22.90
2019-01-22T11:18:58.018Z,21.83
2019-01-22T11:21:30.440Z,21.20
2019-01-22T11:24:02.834Z,17.00
2019-01-22T11:26:34.991Z,19.07
2019-01-22T11:29:07.296Z,28.90
2019-01-22T11:31:39.699Z,34.43
2019-01-22T11:34:12.077Z,27.67
2019-01-22T11:36:44.390Z,23.67
2019-01-22T11:39:16.804Z,23.73
2019-01-22T11:41:48.934Z,36.43
2019-01-22T11:44:21.390Z,38.67
2019-01-22T11:46:53.767Z,26.27
2019-01-22T11:49:26.118Z,24.83
2019-01-22T11:51:58.261Z,24.00
2019-01-22T11:54:30.661Z,22.40
2019-01-22T11:57:02.897Z,25.30
2019-01-22T11:59:35.177Z,24.33
2019-01-22T12:02:07.414Z,23.50
2019-01-22T12:04:38.718Z,28.53
2019-01-22T12:07:10.876Z,21.87
2019-01-22T12:09:42.172Z,23.63
2019-01-22T12:12:15.481Z,19.60
2019-01-22T12:14:49.749Z,19.27
2019-01-22T12:17:23.242Z,23.23
2019-01-22T12:19:54.515Z,21.50
2019-01-22T12:22:27.737Z,19.03
2019-01-22T12:24:58.885Z,19.23
2019-01-22T12:27:32.291Z,20.07
2019-01-22T12:30:03.732Z,18.97
2019-01-22T12:32:37.001Z,19.47
2019-01-22T12:35:08.567Z,19.80
2019-01-22T12:37:41.961Z,20.90
2019-01-22T12:40:13.523Z,22.97
2019-01-22T12:42:47.370Z,23.80
2019-01-22T12:45:21.870Z,25.80
2019-01-22T12:47:54.131Z,25.20
2019-01-22T12:50:26.778Z,26.63
2019-01-22T12:52:58.871Z,25.23
2019-01-22T12:55:31.323Z,26.63
2019-01-22T12:58:03.599Z,25.57
2019-01-22T13:00:36.181Z,26.13
2019-01-22T13:03:08.621Z,25.57
2019-01-22T13:05:44.752Z,24.30
2019-01-22T13:08:18.318Z,25.17
2019-01-22T13:10:49.538Z,25.23
2019-01-22T13:13:22.732Z,24.40
2019-01-22T13:15:54.140Z,28.60
2019-01-22T13:18:27.455Z,25.63
2019-01-22T13:20:58.803Z,27.50
2019-01-22T13:23:32.367Z,25.60
2019-01-22T13:26:03.744Z,25.20
2019-01-22T13:28:37.477Z,25.87
2019-01-22T13:31:08.810Z,26.03
2019-01-22T13:33:41.923Z,25.27
2019-01-22T13:36:13.277Z,27.23
2019-01-22T13:38:46.491Z,26.07
2019-01-22T13:41:17.784Z,24.37
2019-01-22T13:43:51.080Z,26.00
2019-01-22T13:46:22.317Z,25.97
2019-01-22T13:48:55.441Z,24.77
2019-01-22T13:51:26.652Z,23.37
2019-01-22T13:54:00.277Z,25.43
2019-01-22T13:56:31.661Z,27.70
2019-01-22T13:59:04.829Z,26.30
2019-01-22T14:01:35.922Z,27.60
2019-01-22T14:04:09.135Z,26.23
2019-01-22T14:06:40.513Z,26.23
2019-01-22T14:09:13.782Z,32.90
2019-01-22T14:11:45.027Z,29.87
2019-01-22T14:14:18.317Z,32.90
2019-01-22T14:16:49.562Z,28.37
2019-01-22T14:19:22.796Z,29.60
2019-01-22T14:21:54.110Z,29.40
2019-01-22T14:24:27.491Z,27.63
2019-01-22T14:26:58.826Z,27.93
2019-01-22T14:29:32.183Z,29.37
2019-01-22T14:32:06.712Z,27.77
2019-01-22T14:34:39.861Z,28.30
2019-01-22T14:37:11.090Z,29.03
2019-01-22T14:39:44.403Z,27.83
2019-01-22T14:42:15.502Z,29.00
2019-01-22T14:44:50.440Z,28.50
2019-01-22T14:47:21.706Z,30.43
2019-01-22T14:49:55.084Z,27.90
2019-01-22T14:52:26.255Z,28.33
2019-01-22T14:54:59.676Z,28.90
2019-01-22T14:57:31.302Z,26.63
2019-01-22T15:00:06.568Z,28.13
2019-01-22T15:02:38.273Z,27.57
2019-01-22T15:05:11.683Z,26.33
2019-01-22T15:07:42.756Z,27.83
2019-01-22T15:10:16.419Z,26.00
2019-01-22T15:12:48.387Z,30.10
2019-01-22T15:15:22.010Z,27.70
2019-01-22T15:17:53.305Z,26.70
2019-01-22T15:20:27.191Z,28.67
2019-01-22T15:22:58.367Z,31.37
2019-01-22T15:25:32.057Z,29.50
2019-01-22T15:28:03.699Z,27.43
2019-01-22T15:30:38.829Z,28.10
2019-01-22T15:33:13.208Z,28.50
2019-01-22T15:35:46.605Z,29.60
2019-01-22T15:38:17.733Z,31.00
2019-01-22T15:40:54.039Z,30.70
2019-01-22T15:43:28.213Z,29.77
2019-01-22T15:46:01.602Z,30.63
2019-01-22T15:48:33.052Z,31.53
2019-01-22T15:51:06.474Z,31.07
2019-01-22T15:53:37.681Z,31.47
2019-01-22T15:56:11.127Z,33.07
2019-01-22T15:58:42.400Z,36.50
2019-01-22T16:01:16.203Z,37.57
2019-01-22T16:03:47.610Z,34.27
2019-01-22T16:06:21.170Z,33.23
2019-01-22T16:08:52.405Z,36.30
2019-01-22T16:11:25.836Z,56.50
2019-01-22T16:13:57.281Z,53.00
2019-01-22T16:16:30.673Z,40.20
2019-01-22T16:19:01.910Z,34.77
2019-01-22T16:21:35.334Z,34.00
2019-01-22T16:24:06.631Z,37.10
2019-01-22T16:26:39.951Z,35.47
2019-01-22T16:29:11.083Z,40.53
2019-01-22T16:31:45.569Z,34.40
2019-01-22T16:34:20.425Z,34.27
2019-01-22T16:37:17.090Z,32.53
2019-01-22T16:39:48.133Z,32.13
2019-01-22T16:42:21.399Z,31.47
2019-01-22T16:44:52.633Z,32.33
2019-01-22T16:47:27.051Z,33.47
2019-01-22T16:50:01.525Z,32.87
2019-01-22T16:52:34.730Z,30.07
2019-01-22T16:55:07.070Z,28.57
2019-01-22T16:57:40.540Z,34.17
2019-01-22T17:00:14.199Z,33.27
2019-01-22T17:02:47.563Z,33.23
2019-01-22T17:05:19.115Z,32.27
2019-01-22T17:07:52.491Z,32.10
2019-01-22T17:10:24.140Z,31.40
2019-01-22T17:12:57.573Z,33.10
2019-01-22T17:15:30.216Z,30.73
2019-01-22T17:18:03.729Z,32.63
2019-01-22T17:20:36.287Z,32.90
2019-01-22T17:23:16.348Z,32.67
2019-01-22T17:25:42.902Z,34.53
2019-01-22T17:28:16.370Z,33.57
2019-01-22T17:30:47.614Z,36.23
2019-01-22T17:33:29.879Z,33.27
2019-01-22T17:36:01.067Z,31.60
2019-01-22T17:38:34.339Z,32.10
2019-01-22T17:41:05.507Z,34.27
2019-01-22T17:43:38.805Z,32.00
2019-01-22T17:46:11.172Z,32.47
2019-01-22T17:48:43.647Z,32.53
2019-01-22T17:51:15.925Z,35.37
2019-01-22T17:53:48.104Z,32.63
2019-01-22T17:56:20.536Z,44.40
2019-01-22T17:58:53.052Z,39.00
2019-01-22T18:01:25.399Z,38.73
2019-01-22T18:03:57.847Z,44.23
2019-01-22T18:06:30.251Z,44.40
2019-01-22T18:09:02.851Z,38.87
2019-01-22T18:11:34.567Z,37.50
2019-01-22T18:14:08.530Z,38.70
2019-01-22T18:16:39.899Z,38.03
2019-01-22T18:19:13.243Z,38.70
2019-01-22T18:21:44.578Z,37.50
2019-01-22T18:24:18.253Z,36.53
2019-01-22T18:26:49.505Z,41.07
2019-01-22T18:29:22.854Z,40.43
2019-01-22T18:31:54.317Z,39.20
2019-01-22T18:34:27.537Z,39.33
2019-01-22T18:36:58.793Z,35.97
2019-01-22T18:39:32.310Z,34.73
2019-01-22T18:42:04.958Z,36.30
2019-01-22T18:44:38.263Z,40.87
2019-01-22T18:47:09.501Z,36.00
2019-01-22T18:49:44.065Z,38.10
2019-01-22T18:52:15.221Z,39.43
2019-01-22T18:54:48.732Z,40.20
2019-01-22T18:57:20.060Z,41.87
2019-01-22T18:59:53.602Z,36.37
2019-01-22T19:02:24.829Z,36.40
2019-01-22T19:04:58.457Z,36.80
2019-01-22T19:07:29.786Z,36.27
2019-01-22T19:10:04.146Z,31.70
2019-01-22T19:12:35.654Z,31.87
2019-01-22T19:15:09.695Z,32.37
2019-01-22T19:17:40.867Z,29.90
2019-01-22T19:20:14.406Z,30.83
2019-01-22T19:22:45.646Z,29.73
2019-01-22T19:25:20.290Z,28.97
2019-01-22T19:27:51.555Z,30.87
2019-01-22T19:30:25.871Z,29.67
2019-01-22T19:32:57.116Z,28.00
2019-01-22T19:35:30.671Z,29.57
2019-01-22T19:38:02.542Z,29.47
2019-01-22T19:40:36.041Z,29.03
2019-01-22T19:43:08.379Z,28.57
2019-01-22T19:45:41.685Z,29.43
2019-01-22T19:48:13.092Z,29.20
2019-01-22T19:50:46.467Z,27.90
2019-01-22T19:53:17.941Z,27.30
2019-01-22T19:55:51.191Z,26.53
2019-01-22T19:58:22.688Z,26.63
2019-01-22T20:00:55.993Z,26.97
2019-01-22T20:03:27.280Z,26.47
2019-01-22T20:06:01.447Z,25.50
2019-01-22T20:08:33.154Z,24.60
2019-01-22T20:11:06.846Z,23.07
2019-01-22T20:13:38.336Z,23.90
2019-01-22T20:16:11.880Z,24.87
2019-01-22T20:18:43.193Z,23.50
2019-01-22T20:21:16.853Z,23.60
2019-01-22T20:23:49.590Z,22.10
2019-01-22T20:26:23.092Z,21.27
2019-01-22T20:28:54.345Z,24.23
2019-01-22T20:31:27.523Z,25.10
2019-01-22T20:33:58.827Z,23.17
2019-01-22T20:36:32.312Z,23.40
2019-01-22T20:39:04.619Z,23.17
2019-01-22T20:41:39.474Z,22.53
2019-01-22T20:44:10.841Z,22.90
2019-01-22T20:46:44.311Z,22.73
2019-01-22T20:49:15.519Z,22.40
2019-01-22T20:51:48.716Z,21.27
2019-01-22T20:54:20.060Z,24.30
2019-01-22T20:56:53.532Z,22.63
2019-01-22T20:59:24.821Z,22.73
2019-01-22T21:01:58.170Z,23.83
2019-01-22T21:04:29.550Z,19.93
2019-01-22T21:07:04.289Z,22.20
2019-01-22T21:09:35.533Z,22.67
2019-01-22T21:12:09.173Z,22.20
2019-01-22T21:14:41.481Z,25.50
2019-01-22T21:17:13.674Z,24.27
2019-01-22T21:19:45.885Z,25.17
2019-01-22T21:22:18.253Z,22.63
2019-01-22T21:24:51.111Z,21.83
2019-01-22T21:27:23.490Z,21.63
2019-01-22T21:29:55.935Z,20.57
2019-01-22T21:32:28.272Z,19.83
2019-01-22T21:35:00.796Z,20.97
2019-01-22T21:37:33.051Z,21.93
2019-01-22T21:40:07.458Z,20.90
2019-01-22T21:42:41.102Z,19.97
2019-01-22T21:45:13.298Z,20.40
2019-01-22T21:47:46.619Z,18.07
2019-01-22T21:50:18.902Z,20.53
2019-01-22T21:52:52.378Z,19.60
2019-01-22T21:55:23.955Z,20.80
2019-01-22T21:57:57.404Z,19.10
2019-01-22T22:00:28.609Z,18.87
2019-01-22T22:03:02.458Z,19.70
2019-01-22T22:05:33.810Z,19.70
2019-01-22T22:08:07.610Z,20.07
2019-01-22T22:10:38.933Z,20.17
2019-01-22T22:13:12.245Z,17.97
2019-01-22T22:15:43.643Z,19.87
2019-01-22T22:18:16.786Z,19.60
2019-01-22T22:20:48.239Z,21.67
2019-01-22T22:23:21.670Z,20.90
2019-01-22T22:25:52.894Z,22.30
2019-01-22T22:28:26.248Z,22.37
2019-01-22T22:30:57.650Z,21.60
2019-01-22T22:33:30.987Z,23.03
2019-01-22T22:36:03.193Z,22.53
2019-01-22T22:38:36.757Z,21.80
2019-01-22T22:41:08.211Z,21.27
2019-01-22T22:43:41.435Z,22.17
2019-01-22T22:46:12.634Z,21.47
2019-01-22T22:48:45.823Z,21.97
2019-01-22T22:51:17.406Z,21.30
2019-01-22T22:53:50.759Z,23.00
2019-01-22T22:56:21.859Z,22.03
2019-01-22T22:58:55.267Z,24.47
2019-01-22T23:01:28.597Z,23.60
2019-01-22T23:04:02.260Z,20.87
2019-01-22T23:06:36.446Z,24.57
2019-01-22T23:09:12.471Z,24.50
2019-01-22T23:11:43.679Z,23.20
2019-01-22T23:14:16.889Z,22.43
2019-01-22T23:16:48.170Z,22.57
2019-01-22T23:19:22.060Z,23.07
2019-01-22T23:21:53.579Z,24.47
2019-01-22T23:24:29.172Z,24.67
2019-01-22T23:27:00.573Z,25.10
2019-01-22T23:29:37.209Z,25.10
2019-01-22T23:32:08.741Z,25.10
2019-01-22T23:34:41.979Z,25.00
2019-01-22T23:37:13.203Z,23.80
2019-01-22T23:39:46.535Z,25.10
2019-01-22T23:42:17.746Z,23.63
2019-01-22T23:44:51.166Z,27.23
2019-01-22T23:47:22.514Z,24.40
2019-01-22T23:49:56.816Z,24.10
2019-01-22T23:52:27.948Z,25.80
2019-01-22T23:55:01.358Z,26.70
2019-01-22T23:57:32.668Z,25.90
